Time;durP1;ratioP1;P1;durP2;ratioP2;P2;SDS_P1;SDS_P2;PMS_P1;PMS_P2;Temp;Humidity;BMP_temperature;BMP_pressure;BME280_temperature;BME280_humidity;BME280_pressure;Samples;Min_cycle;Max_cycle;Signal;HPM_P1;HPM_P2
2024/02/28 00:01:28;;;;;;;17.73;10.65;;;13.20;99.90;;;;;;4961847;28;20494;-55
2024/02/28 00:03:53;;;;;;;16.25;10.70;;;13.10;99.90;;;;;;4945010;28;20442;-55
2024/02/28 00:06:19;;;;;;;16.08;10.68;;;13.20;99.90;;;;;;4996107;28;20038;-54
2024/02/28 00:08:46;;;;;;;16.42;10.55;;;13.20;99.90;;;;;;4977723;28;20396;-55
2024/02/28 00:11:12;;;;;;;17.50;10.95;;;13.20;99.90;;;;;;4995956;28;20026;-54
2024/02/28 00:13:37;;;;;;;15.10;11.45;;;13.20;99.90;;;;;;4992356;28;20180;-54
2024/02/28 00:16:03;;;;;;;17.40;11.48;;;13.20;99.90;;;;;;4945956;28;20038;-54
2024/02/28 00:18:31;;;;;;;16.58;11.10;;;13.20;99.90;;;;;;4995947;28;20026;-55
2024/02/28 00:20:57;;;;;;;16.67;10.57;;;13.20;99.90;;;;;;4995350;28;20034;-54
2024/02/28 00:23:22;;;;;;;16.90;10.82;;;13.20;99.90;;;;;;4995765;28;20527;-54
2024/02/28 00:25:48;;;;;;;16.08;10.63;;;13.30;99.90;;;;;;4995729;28;20033;-54
2024/02/28 00:28:14;;;;;;;15.80;10.57;;;13.10;99.90;;;;;;4995815;28;20455;-54
2024/02/28 00:30:41;;;;;;;18.45;10.50;;;13.00;99.90;;;;;;4995632;28;20117;-54
2024/02/28 00:33:08;;;;;;;14.13;9.98;;;;;;;;;;4995568;28;20041;-54
2024/02/28 00:35:34;;;;;;;16.73;11.40;;;12.80;99.90;;;;;;4995653;28;20037;-54
2024/02/28 00:38:00;;;;;;;16.88;10.48;;;12.70;99.90;;;;;;4995539;28;20398;-54
2024/02/28 00:40:26;;;;;;;16.17;10.07;;;12.70;99.90;;;;;;4995378;28;20031;-54
2024/02/28 00:42:52;;;;;;;15.05;9.73;;;12.60;99.90;;;;;;4995545;28;20027;-54
2024/02/28 00:45:17;;;;;;;17.25;9.77;;;12.60;99.90;;;;;;4961214;28;20041;-54
2024/02/28 00:47:43;;;;;;;17.58;10.10;;;12.80;99.90;;;;;;4995329;28;20037;-54
2024/02/28 00:50:09;;;;;;;15.13;9.93;;;12.80;99.90;;;;;;4995023;28;20073;-54
2024/02/28 00:52:35;;;;;;;14.77;9.55;;;12.80;99.90;;;;;;4977810;28;20033;-54
2024/02/28 00:55:01;;;;;;;16.10;10.30;;;12.70;99.90;;;;;;4960722;28;20046;-54
2024/02/28 00:57:27;;;;;;;16.10;9.90;;;12.80;99.90;;;;;;4995081;28;20534;-54
2024/02/28 00:59:54;;;;;;;15.32;10.40;;;12.70;99.90;;;;;;4995224;28;20470;-56
2024/02/28 01:02:20;;;;;;;13.95;9.48;;;12.80;99.90;;;;;;4945843;28;20043;-54
2024/02/28 01:04:46;;;;;;;14.75;9.60;;;12.80;99.90;;;;;;4994965;28;20430;-54
2024/02/28 01:07:12;;;;;;;14.15;10.05;;;12.60;99.90;;;;;;4995010;28;20034;-54
2024/02/28 01:09:37;;;;;;;15.40;10.02;;;12.60;99.90;;;;;;4994965;28;20026;-54
2024/02/28 01:12:03;;;;;;;16.75;9.98;;;12.50;99.90;;;;;;4994081;28;20085;-55
2024/02/28 01:14:29;;;;;;;14.85;8.82;;;12.60;99.90;;;;;;5006062;28;20030;-55
2024/02/28 01:16:55;;;;;;;12.38;9.43;;;12.50;99.90;;;;;;5014497;28;20101;-55
2024/02/28 01:19:21;;;;;;;16.60;10.60;;;12.60;99.90;;;;;;5014521;28;20470;-55
2024/02/28 01:21:46;;;;;;;16.42;9.05;;;12.80;99.90;;;;;;4979915;28;20077;-55
2024/02/28 01:24:12;;;;;;;15.23;9.52;;;12.80;99.90;;;;;;5014081;28;20028;-55
2024/02/28 01:26:38;;;;;;;14.93;9.63;;;12.60;99.90;;;;;;5014224;28;20490;-55
2024/02/28 01:29:03;;;;;;;15.82;10.07;;;12.50;99.90;;;;;;5014036;28;20054;-54
2024/02/28 01:31:29;;;;;;;14.02;10.10;;;12.60;99.90;;;;;;4963955;28;20029;-55
2024/02/28 01:33:55;;;;;;;19.88;10.88;;;12.60;99.90;;;;;;5013500;28;20034;-54
2024/02/28 01:36:21;;;;;;;12.50;9.20;;;12.50;99.90;;;;;;4979499;28;20054;-55
2024/02/28 01:38:47;;;;;;;15.50;9.30;;;12.50;99.90;;;;;;5014126;28;20026;-54
2024/02/28 01:41:13;;;;;;;16.55;9.38;;;12.50;99.90;;;;;;5014133;28;20168;-55
2024/02/28 01:43:38;;;;;;;16.75;9.50;;;12.40;99.90;;;;;;5013887;28;20116;-55
2024/02/28 01:46:10;;;;;;;13.65;9.27;;;12.50;99.90;;;;;;5014050;28;20030;-55
2024/02/28 01:48:36;;;;;;;18.42;10.38;;;12.40;99.90;;;;;;5013744;28;20493;-55
2024/02/28 01:51:02;;;;;;;14.20;10.23;;;12.50;99.90;;;;;;5013875;28;20030;-54
2024/02/28 01:53:28;;;;;;;14.23;10.38;;;12.50;99.90;;;;;;5013866;28;20033;-54
2024/02/28 01:55:54;;;;;;;14.57;9.73;;;12.50;99.90;;;;;;5013681;28;20058;-55
2024/02/28 01:58:20;;;;;;;17.15;9.98;;;12.60;99.90;;;;;;4963207;28;20471;-55
2024/02/28 02:00:47;;;;;;;13.13;9.57;;;12.50;99.90;;;;;;5013851;28;20033;-55
2024/02/28 02:03:13;;;;;;;14.57;9.18;;;12.50;99.90;;;;;;4947382;28;20073;-55
2024/02/28 02:05:38;;;;;;;15.52;9.30;;;12.50;99.90;;;;;;5013651;28;20062;-55
2024/02/28 02:08:05;;;;;;;14.40;9.40;;;12.40;99.90;;;;;;4979223;28;20084;-54
2024/02/28 02:10:31;;;;;;;14.68;10.35;;;12.30;99.90;;;;;;4979277;28;20470;-54
2024/02/28 02:13:05;;;;;;;16.35;10.27;;;12.30;99.90;;;;;;5013805;28;20429;-55
2024/02/28 02:15:31;;;;;;;15.15;9.68;;;12.20;99.90;;;;;;5013609;28;20034;-54
2024/02/28 02:17:56;;;;;;;14.85;9.90;;;12.20;99.90;;;;;;4963515;28;20048;-54
2024/02/28 02:20:25;;;;;;;15.73;9.90;;;12.20;99.90;;;;;;5013450;28;20564;-55
2024/02/28 02:22:51;;;;;;;14.40;9.77;;;12.20;99.90;;;;;;5013845;28;20113;-55
2024/02/28 02:25:17;;;;;;;14.80;10.20;;;12.20;99.90;;;;;;5013271;28;20484;-54
2024/02/28 02:27:43;;;;;;;15.95;10.27;;;;;;;;;;5013468;28;20113;-55
2024/02/28 02:30:09;;;;;;;16.33;9.60;;;;;;;;;;4963108;28;20499;-55
2024/02/28 02:32:36;;;;;;;18.88;10.10;;;;;;;;;;4963292;28;20053;-55
2024/02/28 02:35:02;;;;;;;18.42;10.77;;;;;;;;;;5013234;28;20026;-55
2024/02/28 02:37:28;;;;;;;13.55;9.35;;;;;;;;;;4960809;28;20030;-55
2024/02/28 02:39:54;;;;;;;13.73;9.63;;;;;;;;;;4959951;28;20038;-55
2024/02/28 02:42:20;;;;;;;15.00;10.35;;;;;;;;;;4955481;28;20041;-54
2024/02/28 02:44:46;;;;;;;15.52;10.50;;;;;;;;;;4995144;28;20026;-56
2024/02/28 02:47:12;;;;;;;15.70;9.88;;;;;;;;;;4979558;28;20030;-55
2024/02/28 02:49:38;;;;;;;14.77;9.57;;;;;;;;;;4963448;28;20049;-56
2024/02/28 02:52:05;;;;;;;14.30;10.25;;;;;;;;;;4963544;28;20034;-56
2024/02/28 02:54:31;;;;;;;14.10;10.48;;;;;;;;;;4963319;28;20073;-55
2024/02/28 02:56:57;;;;;;;14.45;10.10;;;;;;;;;;4997221;28;20038;-55
2024/02/28 02:59:23;;;;;;;15.93;8.27;;;;;;;;;;4997242;28;20042;-55
2024/02/28 03:01:50;;;;;;;15.68;10.18;;;;;;;;;;4997274;28;20022;-55
2024/02/28 03:04:16;;;;;;;14.00;9.20;;;;;;;;;;4997185;28;20063;-55
2024/02/28 03:06:42;;;;;;;15.27;10.77;;;11.70;99.90;;;;;;4979117;28;20047;-55
2024/02/28 03:09:08;;;;;;;13.27;9.80;;;;;;;;;;4947005;28;20042;-55
2024/02/28 03:11:38;;;;;;;17.45;9.95;;;;;;;;;;4963061;28;20121;-55
2024/02/28 03:14:04;;;;;;;14.75;8.70;;;;;;;;;;4996949;28;20034;-55
2024/02/28 03:16:30;;;;;;;15.82;9.32;;;;;;;;;;4996890;28;20034;-55
2024/02/28 03:18:56;;;;;;;18.33;10.68;;;;;;;;;;4996932;28;20032;-55
2024/02/28 03:21:23;;;;;;;14.48;10.35;;;;;;;;;;4997018;28;20033;-55
2024/02/28 03:23:49;;;;;;;14.55;10.32;;;;;;;;;;4947124;28;20042;-55
2024/02/28 03:26:15;;;;;;;17.52;11.65;;;;;;;;;;4997160;28;20108;-55
2024/02/28 03:28:41;;;;;;;17.55;10.68;;;;;;;;;;4996828;28;20105;-55
2024/02/28 03:31:07;;;;;;;17.58;10.65;;;;;;;;;;4996695;28;20062;-55
2024/02/28 03:33:35;;;;;;;18.55;11.43;;;;;;;;;;4996668;28;20038;-55
2024/02/28 03:36:01;;;;;;;16.83;10.80;;;;;;;;;;4996685;28;20042;-55
2024/02/28 03:38:28;;;;;;;16.27;10.20;;;;;;;;;;4996633;28;20056;-55
2024/02/28 03:40:54;;;;;;;14.65;9.13;;;;;;;;;;4996544;28;20026;-55
2024/02/28 03:43:20;;;;;;;18.33;10.73;;;;;;;;;;4962527;28;20069;-55
2024/02/28 03:45:46;;;;;;;14.82;9.63;;;;;;;;;;4996725;28;20026;-55
2024/02/28 03:48:12;;;;;;;16.40;10.32;;;;;;;;;;4996340;28;20120;-55
2024/02/28 03:50:38;;;;;;;14.02;10.02;;;;;;;;;;4996290;28;20038;-55
2024/02/28 03:53:05;;;;;;;15.45;10.82;;;;;;;;;;4946677;28;20050;-55
2024/02/28 03:55:31;;;;;;;14.07;9.38;;;;;;;;;;4996073;28;20051;-55
2024/02/28 03:57:57;;;;;;;21.08;9.93;;;;;;;;;;4995561;28;20037;-55
2024/02/28 04:00:24;;;;;;;17.45;11.68;;;;;;;;;;4962427;28;20100;-55
2024/02/28 04:02:51;;;;;;;20.88;12.93;;;;;;;;;;4996292;28;20034;-55
2024/02/28 04:05:17;;;;;;;15.25;11.25;;;;;;;;;;4996092;28;20030;-55
2024/02/28 04:07:43;;;;;;;16.38;10.52;;;;;;;;;;4946347;28;20042;-55
2024/02/28 04:10:11;;;;;;;16.08;10.50;;;;;;;;;;4995920;28;20035;-55
2024/02/28 04:12:37;;;;;;;19.42;11.20;;;;;;;;;;4996027;28;20034;-55
2024/02/28 04:15:03;;;;;;;16.70;10.80;;;;;;;;;;4995930;28;20030;-55
2024/02/28 04:17:29;;;;;;;17.13;9.40;;;;;;;;;;4996274;28;20050;-55
2024/02/28 04:19:57;;;;;;;23.65;11.45;;;;;;;;;;4961944;28;20038;-55
2024/02/28 04:22:23;;;;;;;21.58;11.30;;;;;;;;;;4995926;28;20042;-55
2024/02/28 04:24:49;;;;;;;21.65;11.23;;;;;;;;;;4977390;28;20096;-55
2024/02/28 04:27:15;;;;;;;19.35;10.88;;;;;;;;;;4995855;28;20034;-55
2024/02/28 04:29:41;;;;;;;14.27;9.93;;;;;;;;;;4995693;28;20117;-55
2024/02/28 04:32:07;;;;;;;18.17;11.65;;;;;;;;;;4995466;28;20084;-55
2024/02/28 04:34:33;;;;;;;18.05;11.98;;;;;;;;;;4995516;28;20026;-55
2024/02/28 04:36:59;;;;;;;15.77;10.95;;;;;;;;;;4995364;28;20510;-55
2024/02/28 04:39:26;;;;;;;16.33;11.05;;;;;;;;;;4977573;28;20035;-55
2024/02/28 04:41:51;;;;;;;18.05;10.65;;;11.10;99.90;;;;;;4995359;28;20030;-55
2024/02/28 04:44:17;;;;;;;15.73;11.20;;;11.00;99.90;;;;;;4995383;28;20387;-55
2024/02/28 04:46:43;;;;;;;17.13;11.38;;;11.10;99.90;;;;;;4995388;28;20037;-55
2024/02/28 04:49:09;;;;;;;18.08;11.85;;;;;;;;;;4995296;28;20034;-55
2024/02/28 04:51:35;;;;;;;19.58;11.02;;;;;;;;;;4945506;28;20030;-54
2024/02/28 04:54:00;;;;;;;19.15;11.93;;;11.00;99.90;;;;;;4928896;28;20035;-55
2024/02/28 04:56:26;;;;;;;18.20;10.52;;;;;;;;;;4995303;28;20587;-55
2024/02/28 04:58:52;;;;;;;20.40;10.90;;;;;;;;;;4994978;28;20467;-55
2024/02/28 05:01:18;;;;;;;16.85;10.73;;;10.70;99.90;;;;;;4995072;28;20407;-55
2024/02/28 05:03:44;;;;;;;17.42;12.20;;;10.70;99.90;;;;;;4994992;28;20022;-55
2024/02/28 05:06:10;;;;;;;20.80;11.35;;;10.80;99.90;;;;;;4944864;28;20034;-55
2024/02/28 05:08:38;;;;;;;16.80;11.15;;;10.80;99.90;;;;;;4960014;28;20062;-55
2024/02/28 05:11:03;;;;;;;15.82;10.85;;;10.90;99.90;;;;;;4995039;28;20076;-55
2024/02/28 05:13:29;;;;;;;14.98;10.52;;;10.80;99.90;;;;;;4994783;28;20026;-55
2024/02/28 05:15:55;;;;;;;16.20;10.63;;;10.70;99.90;;;;;;4994670;28;20042;-55
2024/02/28 05:18:20;;;;;;;16.23;11.15;;;10.70;99.90;;;;;;4960915;28;20049;-55
2024/02/28 05:20:46;;;;;;;16.38;10.90;;;10.70;99.90;;;;;;4944785;28;20038;-55
2024/02/28 05:23:12;;;;;;;19.30;11.93;;;10.70;99.90;;;;;;4991090;28;20038;-56
2024/02/28 05:25:38;;;;;;;15.95;11.60;;;10.70;99.90;;;;;;4991914;28;20379;-56
2024/02/28 05:28:04;;;;;;;17.63;11.25;;;;;;;;;;4994022;28;20030;-55
2024/02/28 05:30:30;;;;;;;19.27;11.27;;;;;;;;;;4993944;28;20030;-56
2024/02/28 05:32:56;;;;;;;21.95;13.73;;;11.10;99.90;;;;;;4994286;28;20026;-55
2024/02/28 05:35:22;;;;;;;19.00;12.50;;;11.00;99.90;;;;;;4994047;28;20570;-55
2024/02/28 05:37:52;;;;;;;20.52;12.98;;;11.00;99.90;;;;;;4990787;28;20042;-55
2024/02/28 05:40:18;;;;;;;23.70;14.63;;;11.20;99.90;;;;;;4945109;28;20037;-56
2024/02/28 05:42:44;;;;;;;19.55;12.20;;;11.20;99.90;;;;;;4992895;28;20458;-55
2024/02/28 05:45:10;;;;;;;17.67;11.80;;;11.20;99.90;;;;;;4993238;28;20454;-55
2024/02/28 05:47:36;;;;;;;17.83;11.80;;;11.20;99.90;;;;;;4993162;28;20030;-56
2024/02/28 05:50:02;;;;;;;18.52;12.00;;;11.20;99.90;;;;;;4993223;28;20030;-56
2024/02/28 05:52:28;;;;;;;25.23;11.43;;;11.20;99.90;;;;;;4991310;28;20054;-55
2024/02/28 05:54:53;;;;;;;16.92;11.63;;;11.40;99.90;;;;;;4992995;28;20100;-54
2024/02/28 05:57:19;;;;;;;17.65;12.82;;;11.60;99.90;;;;;;4993878;28;20076;-54
2024/02/28 05:59:45;;;;;;;21.25;11.63;;;12.10;99.90;;;;;;4994146;28;20026;-55
2024/02/28 06:02:11;;;;;;;15.88;11.88;;;12.40;99.90;;;;;;4993988;28;20084;-55
2024/02/28 06:04:36;;;;;;;14.98;11.73;;;12.50;99.90;;;;;;4994116;28;20026;-55
2024/02/28 06:07:02;;;;;;;15.85;11.48;;;12.80;99.90;;;;;;4993957;28;20027;-55
2024/02/28 06:09:28;;;;;;;20.30;13.55;;;13.10;99.90;;;;;;4993980;28;20039;-55
2024/02/28 06:11:53;;;;;;;17.98;12.52;;;13.10;99.90;;;;;;4993545;28;20360;-55
2024/02/28 06:14:19;;;;;;;17.77;12.65;;;13.20;99.90;;;;;;4942827;28;20133;-54
2024/02/28 06:16:48;;;;;;;19.33;12.73;;;13.20;99.90;;;;;;4943871;28;20043;-53
2024/02/28 06:19:14;;;;;;;20.92;11.13;;;13.40;99.90;;;;;;4994731;28;20022;-54
2024/02/28 06:21:39;;;;;;;44.53;27.95;;;13.30;99.90;;;;;;4999690;28;20481;-53
2024/02/28 06:24:06;;;;;;;46.65;27.90;;;13.20;99.90;;;;;;4939495;28;20039;-52
2024/02/28 06:26:31;;;;;;;26.27;20.27;;;13.30;99.90;;;;;;4999709;28;20026;-53
2024/02/28 06:29:01;;;;;;;19.50;14.57;;;;;;;;;;4999066;28;20747;-54
2024/02/28 06:31:31;;;;;;;16.65;11.93;;;13.10;99.90;;;;;;4997592;28;20133;-54
2024/02/28 06:33:57;;;;;;;21.77;14.35;;;12.90;99.90;;;;;;4999784;28;20465;-54
2024/02/28 06:36:23;;;;;;;34.92;23.00;;;12.80;99.90;;;;;;5000250;28;20121;-53
2024/02/28 06:38:48;;;;;;;19.35;14.10;;;12.90;99.90;;;;;;4965966;28;20128;-53
2024/02/28 06:41:14;;;;;;;24.35;17.73;;;12.70;99.90;;;;;;5000188;28;20037;-54
2024/02/28 06:43:40;;;;;;;33.38;23.48;;;;;;;;;;5000356;28;20030;-54
2024/02/28 06:46:06;;;;;;;52.85;31.52;;;13.60;99.90;;;;;;5000538;28;20030;-54
2024/02/28 06:48:32;;;;;;;33.17;21.25;;;13.80;99.90;;;;;;5000140;28;20092;-54
2024/02/28 06:50:58;;;;;;;20.13;13.77;;;;;;;;;;5000065;28;20078;-53
2024/02/28 06:53:24;;;;;;;20.83;12.35;;;;;;;;;;5000342;28;20433;-54
2024/02/28 06:55:50;;;;;;;17.50;11.95;;;;;;;;;;5000007;28;20410;-53
2024/02/28 06:58:16;;;;;;;18.98;11.15;;;;;;;;;;5000157;28;20026;-52
2024/02/28 07:00:43;;;;;;;20.55;12.35;;;;;;;;;;5000223;28;20030;-53
2024/02/28 07:03:28;;;;;;;18.35;10.15;;;;;;;;;;4959395;28;20381;-55
2024/02/28 07:05:54;;;;;;;15.82;11.43;;;13.60;99.90;;;;;;4959279;29;20039;-53
2024/02/28 07:08:20;;;;;;;31.17;22.83;;;13.30;99.90;;;;;;4959048;29;20063;-53
2024/02/28 07:10:49;;;;;;;23.85;20.10;;;13.30;99.90;;;;;;4959066;29;20507;-53
2024/02/28 07:13:15;;;;;;;22.77;15.65;;;13.50;99.90;;;;;;4959132;28;20467;-55
2024/02/28 07:15:41;;;;;;;24.08;16.75;;;13.10;99.90;;;;;;4942983;29;20387;-52
2024/02/28 07:18:07;;;;;;;19.08;13.35;;;13.20;99.90;;;;;;4959460;29;20043;-56
2024/02/28 07:20:33;;;;;;;16.15;11.75;;;13.10;99.90;;;;;;4958949;29;20498;-55
2024/02/28 07:22:59;;;;;;;16.08;10.07;;;13.20;99.90;;;;;;4959114;28;20094;-53
2024/02/28 07:25:25;;;;;;;15.98;10.50;;;13.30;99.90;;;;;;4911319;29;20118;-54
2024/02/28 07:27:51;;;;;;;15.55;11.48;;;13.20;99.90;;;;;;4911669;29;20491;-54
2024/02/28 07:30:17;;;;;;;17.13;11.65;;;13.40;99.90;;;;;;4958867;28;20118;-52
2024/02/28 07:32:43;;;;;;;16.80;10.38;;;13.50;99.90;;;;;;4906881;29;20062;-52
2024/02/28 07:35:09;;;;;;;18.60;12.02;;;;;;;;;;4986606;28;20046;-57
2024/02/28 07:37:35;;;;;;;20.42;10.52;;;13.70;99.90;;;;;;4948022;28;20546;-54
2024/02/28 07:40:01;;;;;;;16.23;11.73;;;13.80;99.90;;;;;;4993351;28;20118;-55
2024/02/28 07:42:27;;;;;;;14.38;11.50;;;;;;;;;;4993551;28;20106;-57
2024/02/28 07:44:56;;;;;;;19.45;11.00;;;14.10;99.90;;;;;;4976935;28;20037;-57
2024/02/28 07:47:23;;;;;;;16.30;10.85;;;14.20;99.90;;;;;;4977453;28;20035;-53
2024/02/28 07:49:49;;;;;;;18.48;11.70;;;14.20;99.90;;;;;;4943365;28;20089;-58
2024/02/28 07:52:15;;;;;;;18.90;11.25;;;;;;;;;;4996098;28;20029;-52
2024/02/28 07:54:44;;;;;;;15.70;10.68;;;;;;;;;;4995374;28;20089;-55
2024/02/28 07:57:10;;;;;;;15.48;11.00;;;14.00;99.90;;;;;;4995392;28;20065;-53
2024/02/28 07:59:42;;;;;;;15.98;11.82;;;14.00;99.90;;;;;;4995721;28;20081;-57
2024/02/28 08:02:09;;;;;;;16.02;10.60;;;14.00;99.90;;;;;;4975954;28;20073;-53
2024/02/28 08:04:35;;;;;;;16.23;11.07;;;14.10;99.90;;;;;;4995986;28;20038;-55
2024/02/28 08:07:01;;;;;;;19.90;11.80;;;14.10;99.90;;;;;;4995074;28;20390;-54
2024/02/28 08:09:27;;;;;;;18.77;11.25;;;14.20;99.90;;;;;;4995297;28;20371;-55
2024/02/28 08:11:52;;;;;;;17.60;10.95;;;14.10;99.90;;;;;;4994373;28;20383;-58
2024/02/28 08:14:18;;;;;;;18.08;10.57;;;14.10;99.90;;;;;;4992841;28;20030;-54
2024/02/28 08:16:44;;;;;;;14.05;10.43;;;14.20;99.90;;;;;;4995263;28;20057;-56
2024/02/28 08:19:10;;;;;;;16.70;10.52;;;14.20;99.90;;;;;;4995356;28;20022;-55
2024/02/28 08:21:35;;;;;;;15.50;11.40;;;14.10;99.90;;;;;;4994907;28;20069;-57
2024/02/28 08:24:04;;;;;;;16.42;11.88;;;14.10;99.90;;;;;;4995359;28;20019;-56
2024/02/28 08:26:31;;;;;;;20.45;10.63;;;14.20;99.90;;;;;;4982375;28;20042;-56
2024/02/28 08:28:56;;;;;;;17.85;12.43;;;14.20;99.90;;;;;;4993835;28;20089;-55
2024/02/28 08:31:22;;;;;;;21.45;10.40;;;14.40;99.90;;;;;;4995663;28;20030;-56
2024/02/28 08:33:48;;;;;;;14.43;9.43;;;14.20;99.90;;;;;;4995617;28;20029;-55
2024/02/28 08:36:15;;;;;;;18.58;11.48;;;14.20;99.90;;;;;;4995697;28;20039;-56
2024/02/28 08:38:41;;;;;;;17.55;13.07;;;14.30;99.90;;;;;;4995562;28;20486;-56
2024/02/28 08:41:07;;;;;;;22.13;15.05;;;14.40;99.90;;;;;;4995614;28;20022;-54
2024/02/28 08:43:42;;;;;;;13.80;10.95;;;14.50;99.90;;;;;;4983575;28;20467;-55
2024/02/28 08:46:08;;;;;;;18.50;12.45;;;14.60;99.90;;;;;;4976189;28;20027;-55
2024/02/28 08:48:34;;;;;;;19.67;12.60;;;;;;;;;;4976326;28;20054;-57
2024/02/28 08:51:01;;;;;;;17.60;12.35;;;;;;;;;;4975912;28;20460;-53
2024/02/28 08:53:27;;;;;;;16.30;10.50;;;;;;;;;;4975923;28;20031;-55
2024/02/28 08:55:53;;;;;;;13.93;10.40;;;;;;;;;;4992499;28;20077;-54
2024/02/28 08:58:19;;;;;;;16.77;10.25;;;;;;;;;;4976908;28;20125;-54
2024/02/28 09:00:45;;;;;;;14.48;10.48;;;;;;;;;;4995079;28;20034;-54
2024/02/28 09:03:11;;;;;;;20.55;12.40;;;;;;;;;;4994407;28;20034;-55
2024/02/28 09:05:37;;;;;;;19.88;12.40;;;15.70;99.90;;;;;;4995080;28;20022;-55
2024/02/28 09:08:03;;;;;;;15.27;9.38;;;15.80;99.60;;;;;;4995176;28;20463;-54
2024/02/28 09:10:31;;;;;;;21.50;12.38;;;15.80;98.70;;;;;;4944754;28;20100;-54
2024/02/28 09:12:57;;;;;;;19.88;12.40;;;;;;;;;;4945285;28;20034;-57
2024/02/28 09:15:23;;;;;;;16.20;9.82;;;16.80;99.90;;;;;;4942688;28;20109;-53
2024/02/28 09:17:49;;;;;;;17.13;10.95;;;;;;;;;;4984721;28;20431;-55
2024/02/28 09:20:15;;;;;;;20.52;12.55;;;;;;;;;;4972872;28;20041;-55
2024/02/28 09:22:42;;;;;;;17.48;10.85;;;;;;;;;;4991862;28;20034;-54
2024/02/28 09:25:08;;;;;;;17.02;9.65;;;;;;;;;;4993604;28;20034;-53
2024/02/28 09:27:35;;;;;;;18.52;10.63;;;;;;;;;;4944421;28;20069;-54
2024/02/28 09:30:02;;;;;;;14.75;9.05;;;;;;;;;;4994523;28;20077;-53
2024/02/28 09:32:28;;;;;;;15.65;8.60;;;21.10;99.90;;;;;;4994606;28;20109;-54
2024/02/28 09:34:54;;;;;;;12.38;8.98;;;20.80;96.10;;;;;;4994475;28;20566;-56
2024/02/28 09:37:22;;;;;;;15.13;9.85;;;20.20;91.20;;;;;;4991763;28;20062;-53
2024/02/28 09:39:48;;;;;;;13.23;9.43;;;20.20;91.30;;;;;;4987886;28;20085;-56
2024/02/28 09:42:15;;;;;;;15.25;9.77;;;;;;;;;;4989738;28;20042;-56
2024/02/28 09:44:43;;;;;;;17.13;10.45;;;;;;;;;;4991266;28;20037;-58
2024/02/28 09:47:09;;;;;;;14.05;9.60;;;;;;;;;;4990930;28;20041;-53
2024/02/28 09:49:39;;;;;;;17.65;10.13;;;;;;;;;;4983743;28;20041;-54
2024/02/28 09:52:05;;;;;;;13.38;10.20;;;;;;;;;;4991444;28;20027;-53
2024/02/28 09:54:31;;;;;;;17.80;9.90;;;23.90;88.10;;;;;;4956367;28;20574;-54
2024/02/28 09:56:56;;;;;;;17.05;10.23;;;23.10;85.40;;;;;;4993352;28;20117;-55
2024/02/28 09:59:25;;;;;;;16.92;9.60;;;24.40;86.90;;;;;;4975730;28;20043;-55
2024/02/28 10:02:01;;;;;;;15.80;10.55;;;23.40;84.90;;;;;;4993652;28;20036;-52
2024/02/28 10:04:27;;;;;;;18.75;10.77;;;;;;;;;;4989957;28;20030;-53
2024/02/28 10:06:53;;;;;;;18.20;10.10;;;24.60;83.90;;;;;;4992733;28;20037;-58
2024/02/28 10:09:19;;;;;;;16.75;10.38;;;;;;;;;;4993869;28;20026;-58
2024/02/28 10:11:48;;;;;;;13.88;8.93;;;25.60;88.80;;;;;;4993724;28;20022;-55
2024/02/28 10:14:18;;;;;;;17.55;11.18;;;;;;;;;;4993848;28;20042;-56
2024/02/28 10:16:45;;;;;;;20.77;11.45;;;;;;;;;;4994008;28;20116;-57
2024/02/28 10:19:10;;;;;;;26.10;14.75;;;25.70;99.40;;;;;;4993942;28;20030;-55
2024/02/28 10:21:36;;;;;;;17.40;11.13;;;25.60;85.00;;;;;;4994088;28;20030;-56
2024/02/28 10:24:03;;;;;;;19.63;14.15;;;;;;;;;;4993838;28;20026;-56
2024/02/28 10:26:32;;;;;;;16.73;10.20;;;;;;;;;;4994021;28;20062;-57
2024/02/28 10:28:58;;;;;;;16.13;11.68;;;;;;;;;;4993797;28;20491;-54
2024/02/28 10:31:24;;;;;;;20.38;10.90;;;;;;;;;;4993997;28;20077;-56
2024/02/28 10:33:50;;;;;;;18.33;11.73;;;24.60;79.70;;;;;;4975745;28;20038;-57
2024/02/28 10:36:16;;;;;;;16.55;11.45;;;24.80;80.60;;;;;;4993555;28;20390;-55
2024/02/28 10:38:42;;;;;;;18.02;10.05;;;;;;;;;;4993703;28;20034;-56
2024/02/28 10:41:09;;;;;;;18.35;12.05;;;25.70;99.90;;;;;;4993684;28;20027;-57
2024/02/28 10:43:35;;;;;;;15.32;10.35;;;26.00;90.50;;;;;;4993769;28;20031;-55
2024/02/28 10:46:01;;;;;;;25.83;13.75;;;;;;;;;;4993760;28;20030;-55
2024/02/28 10:48:27;;;;;;;17.13;10.40;;;26.80;78.90;;;;;;4993464;28;20113;-57
2024/02/28 10:50:56;;;;;;;19.98;11.02;;;26.80;78.60;;;;;;4993632;28;20030;-55
2024/02/28 10:53:38;;;;;;;15.77;9.70;;;;;;;;;;4993652;28;20113;-56
2024/02/28 10:56:06;;;;;;;16.13;10.45;;;26.60;77.20;;;;;;4993368;28;20046;-56
2024/02/28 10:58:38;;;;;;;13.45;9.20;;;27.00;78.70;;;;;;4959843;28;20034;-56
2024/02/28 11:01:04;;;;;;;16.15;9.77;;;;;;;;;;4993477;28;20100;-57
2024/02/28 11:03:30;;;;;;;15.10;10.05;;;27.50;77.80;;;;;;4993650;28;20451;-57
2024/02/28 11:05:56;;;;;;;17.20;10.23;;;26.00;77.70;;;;;;4993672;28;20038;-55
2024/02/28 11:08:27;;;;;;;14.38;9.50;;;26.90;78.10;;;;;;4997142;28;20097;-56
2024/02/28 11:10:57;;;;;;;90.25;46.60;;;26.90;77.90;;;;;;4997343;28;20049;-54
2024/02/28 11:13:24;;;;;;;15.98;11.50;;;26.70;77.50;;;;;;4994354;28;20490;-54
2024/02/28 11:15:51;;;;;;;15.93;10.13;;;;;;;;;;4962852;28;20387;-55
2024/02/28 11:18:17;;;;;;;13.52;8.68;;;;;;;;;;4962967;28;20046;-55
2024/02/28 11:20:44;;;;;;;16.90;9.10;;;;;;;;;;4996970;28;20062;-57
2024/02/28 11:23:10;;;;;;;15.55;8.27;;;26.90;77.20;;;;;;4996878;28;20045;-56
2024/02/28 11:25:36;;;;;;;13.85;8.10;;;26.70;77.10;;;;;;4996831;28;20027;-57
2024/02/28 11:28:02;;;;;;;13.27;7.50;;;26.80;77.00;;;;;;4997120;28;20022;-58
2024/02/28 11:30:28;;;;;;;11.10;7.15;;;26.50;76.70;;;;;;4996768;28;20062;-58
2024/02/28 11:32:54;;;;;;;13.15;7.97;;;26.60;76.80;;;;;;4996809;28;20128;-56
2024/02/28 11:35:21;;;;;;;11.63;7.10;;;26.60;77.00;;;;;;4962542;28;20113;-57
2024/02/28 11:37:50;;;;;;;9.80;6.95;;;26.60;77.00;;;;;;4947140;28;20048;-58
2024/02/28 11:40:16;;;;;;;17.13;7.97;;;26.50;77.20;;;;;;4996755;28;20038;-55
2024/02/28 11:42:42;;;;;;;16.83;8.60;;;26.70;77.00;;;;;;4962768;28;20509;-56
2024/02/28 11:45:11;;;;;;;13.63;8.35;;;27.10;77.90;;;;;;4946761;28;20043;-58
2024/02/28 11:47:37;;;;;;;14.35;8.32;;;27.20;76.90;;;;;;4996648;28;20089;-55
2024/02/28 11:50:03;;;;;;;15.05;8.50;;;;;;;;;;4996781;28;20378;-58
2024/02/28 11:52:32;;;;;;;13.55;8.30;;;;;;;;;;4962624;28;20467;-58
2024/02/28 11:54:59;;;;;;;16.65;7.60;;;;;;;;;;4996299;28;20054;-57
2024/02/28 11:57:25;;;;;;;13.43;8.27;;;;;;;;;;4962219;28;20042;-58
2024/02/28 11:59:51;;;;;;;18.60;10.45;;;27.40;96.50;;;;;;4996463;28;20038;-56
2024/02/28 12:02:17;;;;;;;20.48;9.70;;;27.60;76.70;;;;;;4946818;28;20470;-56
2024/02/28 12:04:45;;;;;;;25.42;12.73;;;27.30;76.30;;;;;;4996231;28;20034;-57
2024/02/28 12:07:11;;;;;;;17.02;9.85;;;27.30;76.70;;;;;;4996157;28;20044;-58
2024/02/28 12:09:38;;;;;;;25.23;12.57;;;27.30;76.40;;;;;;4962239;28;20037;-59
2024/02/28 12:12:06;;;;;;;20.42;9.32;;;27.00;76.50;;;;;;4941494;28;20046;-55
2024/02/28 12:14:35;;;;;;;13.30;8.23;;;27.00;76.70;;;;;;4961069;28;20047;-52
2024/02/28 12:17:02;;;;;;;21.35;12.10;;;;;;;;;;4992715;28;20030;-55
2024/02/28 12:19:29;;;;;;;18.25;9.60;;;26.40;94.90;;;;;;4945717;28;20121;-54
2024/02/28 12:21:55;;;;;;;16.17;10.45;;;;;;;;;;4995043;28;20034;-53
2024/02/28 12:24:21;;;;;;;16.80;8.15;;;;;;;;;;4994732;28;20027;-53
2024/02/28 12:26:47;;;;;;;16.08;8.93;;;24.30;77.80;;;;;;4994801;28;20030;-52
2024/02/28 12:29:13;;;;;;;17.70;9.82;;;24.20;78.30;;;;;;4995086;28;20115;-57
2024/02/28 12:31:39;;;;;;;17.13;10.35;;;23.80;79.90;;;;;;4991542;28;20459;-52
2024/02/28 12:34:05;;;;;;;20.58;11.05;;;23.60;91.10;;;;;;4960613;28;20367;-49
2024/02/28 12:36:32;;;;;;;14.10;8.50;;;;;;;;;;4993964;28;20041;-51
2024/02/28 12:38:59;;;;;;;13.25;7.53;;;23.10;93.50;;;;;;4994627;28;20057;-51
2024/02/28 12:41:28;;;;;;;14.48;7.43;;;23.00;81.90;;;;;;4995168;28;20049;-53
2024/02/28 12:43:54;;;;;;;21.65;10.23;;;23.30;82.10;;;;;;4995427;28;20109;-54
2024/02/28 12:46:20;;;;;;;16.58;9.40;;;23.30;82.10;;;;;;4995319;28;20031;-53
2024/02/28 12:48:47;;;;;;;17.55;8.35;;;23.20;81.90;;;;;;4995389;28;20053;-54
2024/02/28 12:51:37;;;;;;;20.52;9.02;;;22.90;81.50;;;;;;4995361;28;20061;-54
2024/02/28 12:54:03;;;;;;;15.82;9.25;;;22.80;82.00;;;;;;4989542;28;20509;-54
2024/02/28 12:56:29;;;;;;;16.80;10.57;;;22.90;82.10;;;;;;4992202;28;20038;-51
2024/02/28 12:58:56;;;;;;;18.17;9.07;;;22.70;96.50;;;;;;4948757;28;20396;-54
2024/02/28 13:01:21;;;;;;;20.10;10.77;;;22.40;82.20;;;;;;4995059;28;20037;-52
2024/02/28 13:03:48;;;;;;;16.88;6.35;;;22.40;82.60;;;;;;4994688;28;20371;-52